sensor_id;sensor_type;location;lat;lon;timestamp;pressure;altitude;pressure_sealevel;temperature;humidity
71559;BME280;59382;43.852;25.952;2023-03-25T00:00:55;100824.75;;;15.25;49.62
71559;BME280;59382;43.852;25.952;2023-03-25T00:03:25;100824.16;;;15.23;49.72
71559;BME280;59382;43.852;25.952;2023-03-25T00:05:55;100823.69;;;15.26;49.76
71559;BME280;59382;43.852;25.952;2023-03-25T00:08:22;100820.59;;;15.22;49.94
71559;BME280;59382;43.852;25.952;2023-03-25T00:10:53;100816.00;;;15.23;49.60
71559;BME280;59382;43.852;25.952;2023-03-25T00:13:20;100806.91;;;15.17;49.70
71559;BME280;59382;43.852;25.952;2023-03-25T00:15:50;100813.88;;;15.25;49.54
71559;BME280;59382;43.852;25.952;2023-03-25T00:18:19;100800.16;;;15.20;49.41
71559;BME280;59382;43.852;25.952;2023-03-25T00:20:48;100796.13;;;15.22;49.15
71559;BME280;59382;43.852;25.952;2023-03-25T00:23:19;100797.56;;;15.25;49.20
71559;BME280;59382;43.852;25.952;2023-03-25T00:25:45;100781.63;;;15.17;49.14
71559;BME280;59382;43.852;25.952;2023-03-25T00:28:11;100782.69;;;15.16;49.33
71559;BME280;59382;43.852;25.952;2023-03-25T00:30:38;100765.34;;;15.05;49.32
71559;BME280;59382;43.852;25.952;2023-03-25T00:33:04;100794.72;;;15.20;49.53
71559;BME280;59382;43.852;25.952;2023-03-25T00:35:30;100787.88;;;15.17;49.16
71559;BME280;59382;43.852;25.952;2023-03-25T00:37:57;100781.50;;;15.12;49.38
71559;BME280;59382;43.852;25.952;2023-03-25T00:40:29;100786.59;;;15.08;49.73
71559;BME280;59382;43.852;25.952;2023-03-25T00:43:00;100752.59;;;14.94;49.91
71559;BME280;59382;43.852;25.952;2023-03-25T00:45:26;100770.53;;;15.07;50.04
71559;BME280;59382;43.852;25.952;2023-03-25T00:47:52;100749.75;;;15.01;49.85
71559;BME280;59382;43.852;25.952;2023-03-25T00:50:18;100764.72;;;15.15;49.52
71559;BME280;59382;43.852;25.952;2023-03-25T00:52:43;100759.75;;;15.12;50.02
71559;BME280;59382;43.852;25.952;2023-03-25T00:55:09;100775.09;;;15.18;50.06
71559;BME280;59382;43.852;25.952;2023-03-25T00:57:35;100765.66;;;15.09;49.96
71559;BME280;59382;43.852;25.952;2023-03-25T01:00:03;100759.44;;;15.08;50.13
71559;BME280;59382;43.852;25.952;2023-03-25T01:02:30;100752.94;;;14.98;50.47
71559;BME280;59382;43.852;25.952;2023-03-25T01:04:58;100767.69;;;15.02;50.76
71559;BME280;59382;43.852;25.952;2023-03-25T01:07:24;100767.09;;;15.00;50.69
71559;BME280;59382;43.852;25.952;2023-03-25T01:09:57;100769.25;;;14.98;50.79
71559;BME280;59382;43.852;25.952;2023-03-25T01:12:23;100757.06;;;15.00;50.63
71559;BME280;59382;43.852;25.952;2023-03-25T01:14:50;100722.59;;;14.78;50.65
71559;BME280;59382;43.852;25.952;2023-03-25T01:17:15;100753.66;;;14.93;50.54
71559;BME280;59382;43.852;25.952;2023-03-25T01:19:41;100731.47;;;14.85;50.24
71559;BME280;59382;43.852;25.952;2023-03-25T01:22:06;100746.81;;;14.91;50.44
71559;BME280;59382;43.852;25.952;2023-03-25T01:24:32;100760.50;;;14.96;50.40
71559;BME280;59382;43.852;25.952;2023-03-25T01:26:58;100760.50;;;14.96;50.32
71559;BME280;59382;43.852;25.952;2023-03-25T01:29:23;100747.06;;;14.89;50.55
71559;BME280;59382;43.852;25.952;2023-03-25T01:31:49;100759.56;;;14.90;50.30
71559;BME280;59382;43.852;25.952;2023-03-25T01:34:15;100758.63;;;14.85;50.59
71559;BME280;59382;43.852;25.952;2023-03-25T01:36:41;100742.56;;;14.72;50.54
71559;BME280;59382;43.852;25.952;2023-03-25T01:39:12;100754.72;;;14.81;50.75
71559;BME280;59382;43.852;25.952;2023-03-25T01:41:41;100752.38;;;14.84;50.78
71559;BME280;59382;43.852;25.952;2023-03-25T01:46:58;100727.00;;;14.79;50.36
71559;BME280;59382;43.852;25.952;2023-03-25T01:49:44;100743.97;;;14.86;50.48
71559;BME280;59382;43.852;25.952;2023-03-25T01:52:17;100739.72;;;14.90;50.26
71559;BME280;59382;43.852;25.952;2023-03-25T01:54:45;100709.50;;;14.75;50.42
71559;BME280;59382;43.852;25.952;2023-03-25T01:57:13;100706.22;;;14.73;50.48
71559;BME280;59382;43.852;25.952;2023-03-25T01:59:42;100731.00;;;14.88;50.47
71559;BME280;59382;43.852;25.952;2023-03-25T02:02:08;100727.69;;;14.86;50.39
71559;BME280;59382;43.852;25.952;2023-03-25T02:04:44;100731.47;;;14.85;50.61
71559;BME280;59382;43.852;25.952;2023-03-25T02:07:16;100720.59;;;14.85;50.90
71559;BME280;59382;43.852;25.952;2023-03-25T02:09:42;100709.38;;;14.81;50.45
71559;BME280;59382;43.852;25.952;2023-03-25T02:12:08;100701.47;;;14.80;50.41
71559;BME280;59382;43.852;25.952;2023-03-25T02:14:35;100690.16;;;14.71;50.37
71559;BME280;59382;43.852;25.952;2023-03-25T02:17:32;100696.88;;;14.80;50.60
71559;BME280;59382;43.852;25.952;2023-03-25T02:20:43;100693.09;;;14.81;50.45
71559;BME280;59382;43.852;25.952;2023-03-25T02:28:52;100686.72;;;14.76;50.45
71559;BME280;59382;43.852;25.952;2023-03-25T02:31:36;100675.53;;;14.61;50.76
71559;BME280;59382;43.852;25.952;2023-03-25T02:42:06;100694.41;;;14.56;51.15
71559;BME280;59382;43.852;25.952;2023-03-25T02:44:51;100686.97;;;14.51;51.28
71559;BME280;59382;43.852;25.952;2023-03-25T02:47:28;100664.19;;;14.41;51.59
71559;BME280;59382;43.852;25.952;2023-03-25T02:50:00;100671.78;;;14.39;51.54
71559;BME280;59382;43.852;25.952;2023-03-25T02:52:39;100673.19;;;14.41;51.81
71559;BME280;59382;43.852;25.952;2023-03-25T02:55:09;100678.59;;;14.41;51.95
71559;BME280;59382;43.852;25.952;2023-03-25T02:57:39;100668.94;;;14.34;51.83
71559;BME280;59382;43.852;25.952;2023-03-25T03:00:09;100667.84;;;14.35;51.94
71559;BME280;59382;43.852;25.952;2023-03-25T03:03:00;100651.19;;;14.20;52.24
71559;BME280;59382;43.852;25.952;2023-03-25T03:05:27;100675.91;;;14.30;52.31
71559;BME280;59382;43.852;25.952;2023-03-25T03:24:32;100675.38;;;14.10;52.63
71559;BME280;59382;43.852;25.952;2023-03-25T03:29:52;100647.78;;;13.90;52.97
71559;BME280;59382;43.852;25.952;2023-03-25T03:32:25;100644.34;;;13.82;52.99
71559;BME280;59382;43.852;25.952;2023-03-25T03:35:06;100652.59;;;13.88;52.98
71559;BME280;59382;43.852;25.952;2023-03-25T03:37:40;100648.81;;;13.88;53.04
71559;BME280;59382;43.852;25.952;2023-03-25T03:40:10;100644.34;;;13.82;52.63
71559;BME280;59382;43.852;25.952;2023-03-25T03:42:48;100658.16;;;13.93;52.59
71559;BME280;59382;43.852;25.952;2023-03-25T03:45:20;100642.00;;;13.86;52.65
71559;BME280;59382;43.852;25.952;2023-03-25T03:47:49;100662.06;;;13.97;52.41
71559;BME280;59382;43.852;25.952;2023-03-25T03:50:21;100655.22;;;13.94;52.29
71559;BME280;59382;43.852;25.952;2023-03-25T03:53:16;100661.34;;;13.90;52.42
71559;BME280;59382;43.852;25.952;2023-03-25T03:55:48;100661.34;;;13.90;52.46
71559;BME280;59382;43.852;25.952;2023-03-25T03:58:28;100658.25;;;13.86;52.39
71559;BME280;59382;43.852;25.952;2023-03-25T04:01:02;100641.50;;;13.77;52.10
71559;BME280;59382;43.852;25.952;2023-03-25T04:03:35;100656.38;;;13.87;52.31
71559;BME280;59382;43.852;25.952;2023-03-25T04:06:31;100641.38;;;13.84;52.36
71559;BME280;59382;43.852;25.952;2023-03-25T04:12:25;100666.53;;;13.91;51.99
71559;BME280;59382;43.852;25.952;2023-03-25T04:14:55;100668.88;;;13.88;52.46
71559;BME280;59382;43.852;25.952;2023-03-25T04:17:22;100652.81;;;13.74;52.10
71559;BME280;59382;43.852;25.952;2023-03-25T04:19:49;100662.75;;;13.80;52.18
71559;BME280;59382;43.852;25.952;2023-03-25T04:22:19;100658.34;;;13.79;51.94
71559;BME280;59382;43.852;25.952;2023-03-25T04:24:46;100647.88;;;13.71;52.60
71559;BME280;59382;43.852;25.952;2023-03-25T04:27:19;100653.53;;;13.81;52.97
71559;BME280;59382;43.852;25.952;2023-03-25T04:29:48;100663.00;;;13.91;53.45
71559;BME280;59382;43.852;25.952;2023-03-25T04:32:13;100683.53;;;14.10;53.41
71559;BME280;59382;43.852;25.952;2023-03-25T04:34:39;100677.53;;;14.19;53.45
71559;BME280;59382;43.852;25.952;2023-03-25T04:37:05;100671.44;;;14.24;53.70
71559;BME280;59382;43.852;25.952;2023-03-25T04:39:30;100661.13;;;14.26;53.64
71559;BME280;59382;43.852;25.952;2023-03-25T04:41:57;100659.72;;;14.35;53.85
71559;BME280;59382;43.852;25.952;2023-03-25T04:44:29;100669.53;;;14.47;53.52
71559;BME280;59382;43.852;25.952;2023-03-25T04:46:58;100669.03;;;14.50;53.65
71559;BME280;59382;43.852;25.952;2023-03-25T04:49:24;100669.03;;;14.50;53.55
71559;BME280;59382;43.852;25.952;2023-03-25T04:51:52;100669.63;;;14.64;53.64
71559;BME280;59382;43.852;25.952;2023-03-25T04:54:19;100667.94;;;14.63;53.98
71559;BME280;59382;43.852;25.952;2023-03-25T04:56:48;100659.91;;;14.68;53.49
71559;BME280;59382;43.852;25.952;2023-03-25T04:59:14;100674.78;;;14.77;53.43
71559;BME280;59382;43.852;25.952;2023-03-25T05:01:40;100685.28;;;14.85;53.36
71559;BME280;59382;43.852;25.952;2023-03-25T05:04:09;100668.88;;;14.80;53.33
71559;BME280;59382;43.852;25.952;2023-03-25T05:06:39;100669.56;;;14.87;53.32
71559;BME280;59382;43.852;25.952;2023-03-25T05:09:08;100682.19;;;14.93;53.15
71559;BME280;59382;43.852;25.952;2023-03-25T05:11:35;100669.06;;;14.90;52.99
71559;BME280;59382;43.852;25.952;2023-03-25T05:14:02;100681.81;;;15.01;53.13
71559;BME280;59382;43.852;25.952;2023-03-25T05:16:28;100662.56;;;15.02;52.68
71559;BME280;59382;43.852;25.952;2023-03-25T05:18:53;100675.31;;;15.30;52.20
71559;BME280;59382;43.852;25.952;2023-03-25T05:21:19;100680.38;;;15.66;52.15
71559;BME280;59382;43.852;25.952;2023-03-25T05:23:46;100665.22;;;16.03;50.94
71559;BME280;59382;43.852;25.952;2023-03-25T05:26:12;100679.72;;;16.58;50.20
71559;BME280;59382;43.852;25.952;2023-03-25T05:28:38;100673.16;;;16.97;49.25
71559;BME280;59382;43.852;25.952;2023-03-25T05:31:04;100659.31;;;17.30;48.33
71559;BME280;59382;43.852;25.952;2023-03-25T05:33:38;100677.56;;;17.78;47.27
71559;BME280;59382;43.852;25.952;2023-03-25T05:38:33;100666.28;;;18.33;46.27
71559;BME280;59382;43.852;25.952;2023-03-25T05:41:00;100680.13;;;18.58;45.58
71559;BME280;59382;43.852;25.952;2023-03-25T05:43:26;100656.19;;;18.80;45.33
71559;BME280;59382;43.852;25.952;2023-03-25T05:45:51;100661.78;;;19.10;44.79
71559;BME280;59382;43.852;25.952;2023-03-25T05:48:17;100658.06;;;19.31;43.95
71559;BME280;59382;43.852;25.952;2023-03-25T05:50:42;100664.94;;;19.48;43.54
71559;BME280;59382;43.852;25.952;2023-03-25T05:53:12;100662.50;;;19.67;42.91
71559;BME280;59382;43.852;25.952;2023-03-25T05:55:39;100664.16;;;19.88;42.61
71559;BME280;59382;43.852;25.952;2023-03-25T05:58:06;100683.34;;;20.08;42.61
71559;BME280;59382;43.852;25.952;2023-03-25T06:00:32;100672.94;;;20.25;42.24
71559;BME280;59382;43.852;25.952;2023-03-25T06:02:58;100674.03;;;20.39;41.70
71559;BME280;59382;43.852;25.952;2023-03-25T06:05:24;100678.09;;;20.57;41.40
71559;BME280;59382;43.852;25.952;2023-03-25T06:07:51;100672.31;;;20.73;40.96
71559;BME280;59382;43.852;25.952;2023-03-25T06:10:20;100668.44;;;20.79;40.68
71559;BME280;59382;43.852;25.952;2023-03-25T06:12:47;100645.38;;;20.90;40.52
71559;BME280;59382;43.852;25.952;2023-03-25T06:15:15;100655.16;;;21.11;40.24
71559;BME280;59382;43.852;25.952;2023-03-25T06:17:43;100665.78;;;21.33;39.71
71559;BME280;59382;43.852;25.952;2023-03-25T06:20:12;100648.16;;;21.39;39.76
71559;BME280;59382;43.852;25.952;2023-03-25T06:22:43;100656.03;;;21.51;39.15
71559;BME280;59382;43.852;25.952;2023-03-25T06:25:11;100667.78;;;21.61;39.16
71559;BME280;59382;43.852;25.952;2023-03-25T06:27:37;100666.91;;;21.71;38.94
71559;BME280;59382;43.852;25.952;2023-03-25T06:30:17;100681.16;;;21.78;38.52
71559;BME280;59382;43.852;25.952;2023-03-25T06:32:42;100677.28;;;21.79;38.62
71559;BME280;59382;43.852;25.952;2023-03-25T06:35:09;100668.78;;;21.80;38.51
71559;BME280;59382;43.852;25.952;2023-03-25T06:37:36;100671.69;;;21.94;38.13
71559;BME280;59382;43.852;25.952;2023-03-25T06:40:02;100672.19;;;22.01;37.89
71559;BME280;59382;43.852;25.952;2023-03-25T06:42:29;100683.69;;;22.08;37.76
71559;BME280;59382;43.852;25.952;2023-03-25T06:44:55;100680.38;;;22.06;37.51
71559;BME280;59382;43.852;25.952;2023-03-25T06:47:21;100678.75;;;22.05;37.82
71559;BME280;59382;43.852;25.952;2023-03-25T06:49:47;100677.03;;;22.14;37.55
71559;BME280;59382;43.852;25.952;2023-03-25T06:52:14;100677.50;;;22.21;37.16
71559;BME280;59382;43.852;25.952;2023-03-25T06:54:40;100671.16;;;22.25;36.98
71559;BME280;59382;43.852;25.952;2023-03-25T06:57:06;100677.91;;;22.38;37.07
71559;BME280;59382;43.852;25.952;2023-03-25T06:59:32;100675.09;;;22.43;37.19
71559;BME280;59382;43.852;25.952;2023-03-25T07:01:58;100678.06;;;22.51;36.78
71559;BME280;59382;43.852;25.952;2023-03-25T07:04:23;100678.19;;;22.65;36.62
71559;BME280;59382;43.852;25.952;2023-03-25T07:06:49;100677.03;;;22.71;36.34
71559;BME280;59382;43.852;25.952;2023-03-25T07:09:15;100677.56;;;22.73;36.22
71559;BME280;59382;43.852;25.952;2023-03-25T07:11:40;100682.78;;;22.74;35.96
71559;BME280;59382;43.852;25.952;2023-03-25T07:14:06;100664.63;;;22.73;36.04
71559;BME280;59382;43.852;25.952;2023-03-25T07:16:32;100670.56;;;22.85;35.84
71559;BME280;59382;43.852;25.952;2023-03-25T07:18:57;100674.56;;;22.93;35.67
71559;BME280;59382;43.852;25.952;2023-03-25T07:21:23;100664.03;;;23.00;36.98
71559;BME280;59382;43.852;25.952;2023-03-25T07:23:50;100678.66;;;23.19;36.58
71559;BME280;59382;43.852;25.952;2023-03-25T07:26:17;100662.19;;;23.14;35.89
71559;BME280;59382;43.852;25.952;2023-03-25T07:28:43;100665.81;;;23.09;35.72
71559;BME280;59382;43.852;25.952;2023-03-25T07:31:13;100671.16;;;23.01;35.53
71559;BME280;59382;43.852;25.952;2023-03-25T07:33:40;100674.94;;;22.63;35.64
71559;BME280;59382;43.852;25.952;2023-03-25T07:36:07;100679.59;;;22.34;36.10
71559;BME280;59382;43.852;25.952;2023-03-25T07:38:35;100673.28;;;22.00;36.05
71559;BME280;59382;43.852;25.952;2023-03-25T07:41:06;100679.03;;;21.65;36.15
71559;BME280;59382;43.852;25.952;2023-03-25T07:43:31;100673.09;;;21.48;36.68
71559;BME280;59382;43.852;25.952;2023-03-25T07:45:57;100682.81;;;21.30;36.87
71559;BME280;59382;43.852;25.952;2023-03-25T07:48:23;100675.41;;;21.25;37.42
71559;BME280;59382;43.852;25.952;2023-03-25T07:50:50;100678.28;;;21.49;37.16
71559;BME280;59382;43.852;25.952;2023-03-25T07:53:17;100689.31;;;21.88;36.94
71559;BME280;59382;43.852;25.952;2023-03-25T07:55:43;100670.81;;;22.03;36.68
71559;BME280;59382;43.852;25.952;2023-03-25T07:58:10;100663.81;;;22.16;36.62
71559;BME280;59382;43.852;25.952;2023-03-25T08:00:36;100661.84;;;22.21;36.58
71559;BME280;59382;43.852;25.952;2023-03-25T08:03:01;100682.88;;;22.36;36.67
71559;BME280;59382;43.852;25.952;2023-03-25T08:05:29;100678.38;;;22.45;36.46
71559;BME280;59382;43.852;25.952;2023-03-25T08:07:55;100681.13;;;22.45;36.59
71559;BME280;59382;43.852;25.952;2023-03-25T08:10:24;100691.25;;;22.49;36.51
71559;BME280;59382;43.852;25.952;2023-03-25T08:12:51;100685.50;;;22.46;36.17
71559;BME280;59382;43.852;25.952;2023-03-25T08:15:18;100678.50;;;22.35;36.54
71559;BME280;59382;43.852;25.952;2023-03-25T08:17:44;100676.63;;;22.30;36.55
71559;BME280;59382;43.852;25.952;2023-03-25T08:20:10;100665.34;;;22.27;36.77
71559;BME280;59382;43.852;25.952;2023-03-25T08:22:37;100653.06;;;22.19;36.66
71559;BME280;59382;43.852;25.952;2023-03-25T08:25:03;100648.28;;;22.30;36.76
71559;BME280;59382;43.852;25.952;2023-03-25T08:27:28;100661.00;;;22.49;36.57
71559;BME280;59382;43.852;25.952;2023-03-25T08:29:54;100655.97;;;22.61;36.24
71559;BME280;59382;43.852;25.952;2023-03-25T08:32:25;100634.88;;;22.52;36.25
71559;BME280;59382;43.852;25.952;2023-03-25T08:34:52;100644.59;;;22.68;36.29
71559;BME280;59382;43.852;25.952;2023-03-25T08:37:18;100652.81;;;22.73;36.17
71559;BME280;59382;43.852;25.952;2023-03-25T08:39:43;100649.50;;;22.71;36.12
71559;BME280;59382;43.852;25.952;2023-03-25T08:42:13;100650.06;;;22.73;35.80
71559;BME280;59382;43.852;25.952;2023-03-25T08:44:38;100648.13;;;22.73;36.28
71559;BME280;59382;43.852;25.952;2023-03-25T08:47:04;100643.44;;;22.74;35.82
71559;BME280;59382;43.852;25.952;2023-03-25T08:49:30;100625.34;;;22.68;36.01
71559;BME280;59382;43.852;25.952;2023-03-25T08:51:56;100626.13;;;22.73;35.96
71559;BME280;59382;43.852;25.952;2023-03-25T08:54:27;100634.09;;;22.75;35.80
71559;BME280;59382;43.852;25.952;2023-03-25T08:56:53;100612.31;;;22.55;36.05
71559;BME280;59382;43.852;25.952;2023-03-25T08:59:19;100620.81;;;22.30;36.52
71559;BME280;59382;43.852;25.952;2023-03-25T09:01:46;100633.84;;;22.14;37.02
71559;BME280;59382;43.852;25.952;2023-03-25T09:04:12;100626.47;;;22.10;37.29
71559;BME280;59382;43.852;25.952;2023-03-25T09:06:37;100617.78;;;21.98;37.46
71559;BME280;59382;43.852;25.952;2023-03-25T09:09:04;100611.25;;;21.94;37.61
71559;BME280;59382;43.852;25.952;2023-03-25T09:11:33;100613.38;;;22.02;37.52
71559;BME280;59382;43.852;25.952;2023-03-25T09:13:59;100624.25;;;22.17;37.50
71559;BME280;59382;43.852;25.952;2023-03-25T09:16:27;100620.34;;;22.23;37.39
71559;BME280;59382;43.852;25.952;2023-03-25T09:18:52;100625.91;;;22.13;37.55
71559;BME280;59382;43.852;25.952;2023-03-25T09:21:18;100611.72;;;22.01;37.75
71559;BME280;59382;43.852;25.952;2023-03-25T09:23:43;100612.81;;;22.05;37.88
71559;BME280;59382;43.852;25.952;2023-03-25T09:26:09;100618.88;;;22.02;37.90
71559;BME280;59382;43.852;25.952;2023-03-25T09:28:34;100598.72;;;21.83;37.98
71559;BME280;59382;43.852;25.952;2023-03-25T09:31:00;100600.72;;;21.67;38.19
71559;BME280;59382;43.852;25.952;2023-03-25T09:33:25;100610.41;;;21.60;38.49
71559;BME280;59382;43.852;25.952;2023-03-25T09:35:52;100607.63;;;21.65;38.67
71559;BME280;59382;43.852;25.952;2023-03-25T09:38:18;100603.66;;;21.86;38.39
71559;BME280;59382;43.852;25.952;2023-03-25T09:40:44;100596.31;;;22.05;38.32
71559;BME280;59382;43.852;25.952;2023-03-25T09:43:38;100555.88;;;21.82;37.84
71559;BME280;59382;43.852;25.952;2023-03-25T09:46:05;100583.53;;;22.19;38.14
71559;BME280;59382;43.852;25.952;2023-03-25T09:48:44;100581.72;;;22.33;37.42
71559;BME280;59382;43.852;25.952;2023-03-25T09:51:14;100590.88;;;22.52;37.41
71559;BME280;59382;43.852;25.952;2023-03-25T09:54:19;100595.97;;;22.63;37.19
71559;BME280;59382;43.852;25.952;2023-03-25T09:56:42;100591.59;;;22.62;37.08
71559;BME280;59382;43.852;25.952;2023-03-25T09:59:47;100594.97;;;22.54;36.82
71559;BME280;59382;43.852;25.952;2023-03-25T10:23:09;100544.94;;;21.77;37.81
71559;BME280;59382;43.852;25.952;2023-03-25T10:25:43;100563.44;;;21.95;37.97
71559;BME280;59382;43.852;25.952;2023-03-25T10:28:18;100568.31;;;22.03;38.05
71559;BME280;59382;43.852;25.952;2023-03-25T10:30:51;100566.97;;;22.00;38.33
71559;BME280;59382;43.852;25.952;2023-03-25T10:33:35;100567.88;;;21.91;38.29
71559;BME280;59382;43.852;25.952;2023-03-25T10:36:03;100573.13;;;21.87;38.48
71559;BME280;59382;43.852;25.952;2023-03-25T10:38:32;100560.59;;;21.76;38.71
71559;BME280;59382;43.852;25.952;2023-03-25T10:41:20;100556.53;;;21.64;39.23
71559;BME280;59382;43.852;25.952;2023-03-25T10:43:49;100539.13;;;21.45;39.47
71559;BME280;59382;43.852;25.952;2023-03-25T10:48:40;100551.06;;;21.25;40.26
71559;BME280;59382;43.852;25.952;2023-03-25T10:51:12;100557.69;;;21.24;40.67
71559;BME280;59382;43.852;25.952;2023-03-25T10:53:39;100542.63;;;21.21;40.93
71559;BME280;59382;43.852;25.952;2023-03-25T10:56:13;100534.66;;;21.20;40.74
71559;BME280;59382;43.852;25.952;2023-03-25T10:58:41;100524.00;;;21.13;40.47
71559;BME280;59382;43.852;25.952;2023-03-25T11:01:35;100529.41;;;21.23;40.66
71559;BME280;59382;43.852;25.952;2023-03-25T11:04:05;100520.38;;;21.23;40.47
71559;BME280;59382;43.852;25.952;2023-03-25T11:06:39;100511.50;;;21.31;39.71
71559;BME280;59382;43.852;25.952;2023-03-25T11:09:28;100508.44;;;21.38;39.82
71559;BME280;59382;43.852;25.952;2023-03-25T11:11:58;100505.09;;;21.46;39.88
71559;BME280;59382;43.852;25.952;2023-03-25T11:14:26;100502.34;;;21.46;39.94
71559;BME280;59382;43.852;25.952;2023-03-25T11:17:06;100503.16;;;21.46;39.94
71559;BME280;59382;43.852;25.952;2023-03-25T11:19:42;100486.75;;;21.41;40.26
71559;BME280;59382;43.852;25.952;2023-03-25T11:22:21;100484.41;;;21.53;40.50
71559;BME280;59382;43.852;25.952;2023-03-25T11:24:50;100481.09;;;21.56;40.43
71559;BME280;59382;43.852;25.952;2023-03-25T11:27:22;100475.88;;;21.55;40.21
71559;BME280;59382;43.852;25.952;2023-03-25T11:29:54;100481.31;;;21.65;39.91
71559;BME280;59382;43.852;25.952;2023-03-25T11:32:31;100478.56;;;21.65;39.78
71559;BME280;59382;43.852;25.952;2023-03-25T11:35:00;100465.41;;;21.62;39.68
71559;BME280;59382;43.852;25.952;2023-03-25T11:37:30;100468.16;;;21.62;40.03
71559;BME280;59382;43.852;25.952;2023-03-25T11:40:04;100470.91;;;21.62;40.29
71559;BME280;59382;43.852;25.952;2023-03-25T11:42:40;100446.22;;;21.57;40.55
71559;BME280;59382;43.852;25.952;2023-03-25T11:45:22;100450.69;;;21.53;40.94
71559;BME280;59382;43.852;25.952;2023-03-25T11:47:49;100446.22;;;21.57;40.74
71559;BME280;59382;43.852;25.952;2023-03-25T11:50:27;100438.53;;;21.59;40.71
71559;BME280;59382;43.852;25.952;2023-03-25T11:53:00;100445.59;;;21.65;40.60
71559;BME280;59382;43.852;25.952;2023-03-25T11:55:40;100442.22;;;21.73;40.22
71559;BME280;59382;43.852;25.952;2023-03-25T11:58:16;100436.16;;;21.76;39.91
71559;BME280;59382;43.852;25.952;2023-03-25T12:00:47;100432.84;;;21.79;40.00
71559;BME280;59382;43.852;25.952;2023-03-25T12:05:40;100441.63;;;21.81;40.00
71559;BME280;59382;43.852;25.952;2023-03-25T12:10:44;100432.91;;;21.74;40.49
71559;BME280;59382;43.852;25.952;2023-03-25T12:13:18;100426.31;;;21.75;40.02
71559;BME280;59382;43.852;25.952;2023-03-25T12:18:44;100430.50;;;21.91;38.97
71559;BME280;59382;43.852;25.952;2023-03-25T12:24:22;100427.72;;;21.96;38.15
71559;BME280;59382;43.852;25.952;2023-03-25T12:33:00;100411.16;;;22.01;37.70
71559;BME280;59382;43.852;25.952;2023-03-25T12:38:29;100418.28;;;22.02;38.26
71559;BME280;59382;43.852;25.952;2023-03-25T12:43:43;100412.31;;;21.95;37.85
71559;BME280;59382;43.852;25.952;2023-03-25T13:08:15;100372.53;;;21.92;36.72
71559;BME280;59382;43.852;25.952;2023-03-25T13:10:47;100375.50;;;21.96;36.86
71559;BME280;59382;43.852;25.952;2023-03-25T13:13:25;100381.50;;;21.98;36.84
71559;BME280;59382;43.852;25.952;2023-03-25T13:16:08;100362.41;;;21.88;36.54
71559;BME280;59382;43.852;25.952;2023-03-25T13:21:46;100335.63;;;21.80;37.05
71559;BME280;59382;43.852;25.952;2023-03-25T13:24:33;100361.69;;;22.01;37.33
71559;BME280;59382;43.852;25.952;2023-03-25T13:27:03;100358.34;;;22.04;37.29
71559;BME280;59382;43.852;25.952;2023-03-25T13:29:36;100357.19;;;22.10;37.19
71559;BME280;59382;43.852;25.952;2023-03-25T13:32:38;100356.66;;;22.08;37.00
71559;BME280;59382;43.852;25.952;2023-03-25T13:35:32;100350.06;;;22.09;36.97
71559;BME280;59382;43.852;25.952;2023-03-25T13:38:03;100354.72;;;22.08;37.09
71559;BME280;59382;43.852;25.952;2023-03-25T13:40:45;100358.66;;;22.02;36.95
71559;BME280;59382;43.852;25.952;2023-03-25T13:46:11;100350.97;;;21.81;37.37
71559;BME280;59382;43.852;25.952;2023-03-25T13:48:48;100356.47;;;21.81;37.59
71559;BME280;59382;43.852;25.952;2023-03-25T13:51:16;100353.47;;;21.77;37.83
71559;BME280;59382;43.852;25.952;2023-03-25T13:53:46;100354.31;;;21.78;37.95
71559;BME280;59382;43.852;25.952;2023-03-25T13:59:16;100348.81;;;21.78;37.95
71559;BME280;59382;43.852;25.952;2023-03-25T14:02:03;100353.47;;;21.77;38.04
71559;BME280;59382;43.852;25.952;2023-03-25T14:07:55;100352.16;;;21.70;38.22
71559;BME280;59382;43.852;25.952;2023-03-25T14:11:24;100345.97;;;21.59;38.28
71559;BME280;59382;43.852;25.952;2023-03-25T14:13:28;100360.00;;;21.58;38.78
71559;BME280;59382;43.852;25.952;2023-03-25T14:16:06;100352.16;;;21.46;38.96
71559;BME280;59382;43.852;25.952;2023-03-25T14:18:41;100347.38;;;21.33;39.40
71559;BME280;59382;43.852;25.952;2023-03-25T14:24:06;100343.06;;;21.27;39.49
71559;BME280;59382;43.852;25.952;2023-03-25T14:26:35;100331.91;;;21.18;39.26
71559;BME280;59382;43.852;25.952;2023-03-25T14:32:03;100317.09;;;21.14;39.73
71559;BME280;59382;43.852;25.952;2023-03-25T14:34:28;100327.41;;;21.27;39.78
71559;BME280;59382;43.852;25.952;2023-03-25T14:44:42;100309.13;;;21.18;40.21
71559;BME280;59382;43.852;25.952;2023-03-25T14:52:44;100303.34;;;21.19;40.34
71559;BME280;59382;43.852;25.952;2023-03-25T14:57:44;100319.94;;;21.33;40.42
71559;BME280;59382;43.852;25.952;2023-03-25T15:00:23;100325.66;;;21.37;40.54
71559;BME280;59382;43.852;25.952;2023-03-25T15:03:00;100304.34;;;21.28;40.65
71559;BME280;59382;43.852;25.952;2023-03-25T15:05:28;100321.34;;;21.30;40.63
71559;BME280;59382;43.852;25.952;2023-03-25T15:10:38;100295.16;;;21.14;41.33
71559;BME280;59382;43.852;25.952;2023-03-25T15:26:18;100309.97;;;21.13;41.14
71559;BME280;59382;43.852;25.952;2023-03-25T15:37:23;100302.94;;;21.02;41.06
71559;BME280;59382;43.852;25.952;2023-03-25T15:40:24;100289.88;;;20.94;41.21
71559;BME280;59382;43.852;25.952;2023-03-25T15:51:17;100298.94;;;20.90;41.82
71559;BME280;59382;43.852;25.952;2023-03-25T15:54:02;100291.63;;;20.80;42.05